createdAt,value
2022-08-28T00:04:37.802Z,3.46
2022-08-28T00:09:45.273Z,4.68
2022-08-28T00:14:52.395Z,4.35
2022-08-28T00:19:59.353Z,3.40
2022-08-28T00:25:06.571Z,3.76
2022-08-28T00:30:13.489Z,4.65
2022-08-28T00:35:20.610Z,4.51
2022-08-28T00:40:28.949Z,5.62
2022-08-28T00:45:39.323Z,5.00
2022-08-28T00:50:40.788Z,4.96
2022-08-28T00:55:47.897Z,4.89
2022-08-28T01:00:54.857Z,6.80
2022-08-28T01:06:01.955Z,6.52
2022-08-28T01:11:09.012Z,5.44
2022-08-28T01:16:16.082Z,6.93
2022-08-28T01:21:22.961Z,6.93
2022-08-28T01:26:30.037Z,6.65
2022-08-28T01:31:37.004Z,5.98
2022-08-28T01:36:44.013Z,5.59
2022-08-28T01:41:50.943Z,8.93
2022-08-28T01:46:57.970Z,8.37
2022-08-28T01:52:04.921Z,7.09
2022-08-28T01:57:11.526Z,6.87
2022-08-28T02:02:18.509Z,8.27
2022-08-28T02:07:25.641Z,7.60
2022-08-28T02:12:32.561Z,7.38
2022-08-28T02:17:39.608Z,5.89
2022-08-28T02:22:46.632Z,7.43
2022-08-28T02:27:53.706Z,7.64
2022-08-28T02:33:00.652Z,7.62
2022-08-28T02:38:07.759Z,6.51
2022-08-28T02:43:14.694Z,6.87
2022-08-28T02:48:21.785Z,6.55
2022-08-28T02:53:28.604Z,8.97
2022-08-28T02:58:35.722Z,7.86
2022-08-28T03:03:42.640Z,7.69
2022-08-28T03:08:49.701Z,5.41
2022-08-28T03:13:56.668Z,6.62
2022-08-28T03:19:03.911Z,6.76
2022-08-28T03:24:10.853Z,7.20
2022-08-28T03:29:17.496Z,6.12
2022-08-28T03:34:24.459Z,6.68
2022-08-28T03:39:31.540Z,6.06
2022-08-28T03:44:38.493Z,5.93
2022-08-28T03:49:45.913Z,5.73
2022-08-28T03:54:52.856Z,6.03
2022-08-28T03:59:59.930Z,7.86
2022-08-28T04:05:06.890Z,4.59
2022-08-28T04:10:13.996Z,5.07
2022-08-28T04:15:20.899Z,6.41
2022-08-28T04:20:27.990Z,5.63
2022-08-28T04:25:34.926Z,6.05
2022-08-28T04:30:42.006Z,4.74
2022-08-28T04:35:48.951Z,6.15
2022-08-28T04:40:56.066Z,5.45
2022-08-28T04:46:02.599Z,4.18
2022-08-28T04:51:09.741Z,4.91
2022-08-28T04:56:16.657Z,4.76
2022-08-28T05:01:23.842Z,5.51
2022-08-28T05:06:30.752Z,4.01
2022-08-28T05:11:37.758Z,4.97
2022-08-28T05:16:44.796Z,6.81
2022-08-28T05:21:51.786Z,6.31
2022-08-28T05:26:58.709Z,5.00
2022-08-28T05:32:05.862Z,5.12
2022-08-28T05:37:15.467Z,3.76
2022-08-28T05:42:19.485Z,3.17
2022-08-28T05:47:26.466Z,4.06
2022-08-28T05:52:33.531Z,3.09
2022-08-28T05:57:40.503Z,3.58
2022-08-28T06:02:47.521Z,4.16
2022-08-28T06:07:53.973Z,2.82
2022-08-28T06:13:01.049Z,3.22
2022-08-28T06:18:07.980Z,3.53
2022-08-28T06:23:15.034Z,2.80
2022-08-28T06:33:28.795Z,2.69
2022-08-28T06:38:45.224Z,2.81
2022-08-28T06:43:42.339Z,1.63
2022-08-28T06:48:57.337Z,2.13
2022-08-28T06:53:54.442Z,1.15
2022-08-28T06:59:10.125Z,1.06
2022-08-28T07:04:10.369Z,1.60
2022-08-28T07:09:09.052Z,1.35
2022-08-28T07:14:23.549Z,2.48
2022-08-28T07:19:17.067Z,2.73
2022-08-28T07:24:25.432Z,1.17
2022-08-28T07:29:34.024Z,1.63
2022-08-28T07:34:42.301Z,1.81
2022-08-28T07:39:49.264Z,1.30
2022-08-28T07:45:04.273Z,2.70
2022-08-28T07:50:01.216Z,1.49
2022-08-28T07:55:13.078Z,1.45
2022-08-28T08:00:10.055Z,0.96
2022-08-28T08:05:28.274Z,1.33
2022-08-28T08:10:25.226Z,1.40
2022-08-28T08:15:37.563Z,1.18
2022-08-28T08:20:34.547Z,1.51
2022-08-28T08:25:46.646Z,1.05
2022-08-28T08:30:43.848Z,1.01
2022-08-28T08:36:05.472Z,0.91
2022-08-28T08:40:52.519Z,1.29
2022-08-28T08:46:14.752Z,1.35
2022-08-28T08:51:01.821Z,7.19
2022-08-28T08:56:17.642Z,0.82
2022-08-28T09:01:18.647Z,1.24
2022-08-28T09:06:27.020Z,1.97
2022-08-28T09:16:36.776Z,0.92
2022-08-28T09:21:46.018Z,1.09
2022-08-28T09:26:47.542Z,1.75
2022-08-28T09:31:49.307Z,1.11
2022-08-28T09:36:54.322Z,1.43
2022-08-28T09:46:58.831Z,1.96
2022-08-28T09:57:06.811Z,0.88
2022-08-28T10:02:09.413Z,1.78
2022-08-28T10:07:20.385Z,4.26
2022-08-28T10:12:17.520Z,1.61
2022-08-28T10:17:24.770Z,1.22
2022-08-28T10:22:35.787Z,3.00
2022-08-28T10:27:32.812Z,1.49
2022-08-28T10:37:39.904Z,2.29
2022-08-28T10:42:43.230Z,2.04
2022-08-28T10:47:50.163Z,1.72
2022-08-28T10:53:02.432Z,1.82
2022-08-28T10:57:59.360Z,1.37
2022-08-28T11:03:27.088Z,1.88
2022-08-28T11:08:16.204Z,2.03
2022-08-28T11:13:23.523Z,1.22
2022-08-28T11:18:30.483Z,1.81
2022-08-28T11:23:37.682Z,1.92
2022-08-28T11:28:44.148Z,2.25
2022-08-28T11:33:51.496Z,3.16
2022-08-28T11:39:02.283Z,1.47
2022-08-28T11:43:59.607Z,1.77
2022-08-28T11:54:13.051Z,3.20
2022-08-28T12:04:23.139Z,2.19
2022-08-28T12:09:27.276Z,1.96
2022-08-28T12:14:34.414Z,1.95
2022-08-28T12:19:55.247Z,1.88
2022-08-28T12:24:47.033Z,3.06
2022-08-28T12:29:54.008Z,3.40
2022-08-28T12:35:01.048Z,2.41
2022-08-28T12:40:17.156Z,1.54
2022-08-28T12:45:15.363Z,2.77
2022-08-28T12:50:19.455Z,1.86
2022-08-28T12:55:26.519Z,1.46
2022-08-28T13:00:39.584Z,1.71
2022-08-28T13:05:36.717Z,3.92
2022-08-28T13:10:50.585Z,2.60
2022-08-28T13:15:47.697Z,2.93
2022-08-28T13:20:57.133Z,3.72
2022-08-28T13:31:08.676Z,2.44
2022-08-28T13:36:14.515Z,2.60
2022-08-28T13:41:17.871Z,2.82
2022-08-28T13:46:27.510Z,2.50
2022-08-28T13:51:34.441Z,3.35
2022-08-28T14:01:48.094Z,4.09
2022-08-28T14:06:56.329Z,3.19
2022-08-28T14:12:03.228Z,2.91
2022-08-28T14:17:16.038Z,2.08
2022-08-28T14:22:12.947Z,4.17
2022-08-28T14:27:26.533Z,2.47
2022-08-28T14:32:23.452Z,3.49
2022-08-28T14:37:31.663Z,3.38
2022-08-28T14:47:44.402Z,2.60
2022-08-28T14:52:50.596Z,2.30
2022-08-28T14:57:55.441Z,1.68
2022-08-28T15:03:14.668Z,1.82
2022-08-28T15:08:11.631Z,4.00
2022-08-28T15:13:23.509Z,2.49
2022-08-28T15:18:20.535Z,1.99
2022-08-28T15:23:32.462Z,1.70
2022-08-28T15:28:29.032Z,3.44
2022-08-28T15:33:45.097Z,2.25
2022-08-28T15:38:37.118Z,2.40
2022-08-28T15:43:48.493Z,2.99
2022-08-28T15:48:45.570Z,3.04
2022-08-28T15:53:56.407Z,2.78
2022-08-28T15:58:53.496Z,3.05
2022-08-28T16:04:05.328Z,2.09
2022-08-28T16:09:02.319Z,2.96
2022-08-28T16:14:15.878Z,2.06
2022-08-28T16:19:10.167Z,2.43
2022-08-28T16:24:22.360Z,2.99
2022-08-28T16:29:19.484Z,2.15
2022-08-28T16:34:31.620Z,2.42
2022-08-28T16:39:27.266Z,2.54
2022-08-28T16:44:39.153Z,5.03
2022-08-28T16:49:36.195Z,3.20
2022-08-28T16:54:48.692Z,2.94
2022-08-28T16:59:44.139Z,2.38
2022-08-28T17:09:57.418Z,2.33
2022-08-28T17:15:03.639Z,2.89
2022-08-28T17:20:10.706Z,2.54
2022-08-28T17:25:24.677Z,2.34
2022-08-28T17:30:21.726Z,4.03
2022-08-28T17:35:40.321Z,1.88
2022-08-28T17:45:46.440Z,2.08
2022-08-28T17:50:43.599Z,3.73
2022-08-28T17:55:55.047Z,2.41
2022-08-28T18:00:52.191Z,2.53
2022-08-28T18:06:02.703Z,2.13
2022-08-28T18:16:11.961Z,2.80
2022-08-28T18:21:16.929Z,2.80
2022-08-28T18:26:17.155Z,2.39
2022-08-28T18:31:14.370Z,3.23
2022-08-28T18:36:21.338Z,2.06
2022-08-28T18:41:43.223Z,2.47
2022-08-28T18:46:35.199Z,3.37
2022-08-28T18:51:42.176Z,3.05
2022-08-28T18:56:49.691Z,2.12
2022-08-28T19:01:55.886Z,3.27
2022-08-28T19:07:02.779Z,3.55
2022-08-28T19:12:10.106Z,3.92
2022-08-28T19:17:20.980Z,3.30
2022-08-28T19:22:23.761Z,3.42
2022-08-28T19:27:30.733Z,3.10
2022-08-28T19:32:37.943Z,6.31
2022-08-28T19:37:44.911Z,3.58
2022-08-28T19:42:52.010Z,3.76
2022-08-28T19:47:58.431Z,5.35
2022-08-28T19:53:05.601Z,4.47
2022-08-28T19:58:12.601Z,3.79
2022-08-28T20:03:20.582Z,4.09
2022-08-28T20:08:27.861Z,4.83
2022-08-28T20:13:35.299Z,4.39
2022-08-28T20:18:42.248Z,4.56
2022-08-28T20:23:49.532Z,4.27
2022-08-28T20:28:56.926Z,3.02
2022-08-28T20:34:04.393Z,3.55
2022-08-28T20:39:11.343Z,4.08
2022-08-28T20:44:18.514Z,2.88
2022-08-28T20:49:25.899Z,2.71
2022-08-28T20:54:32.995Z,3.55
2022-08-28T20:59:40.624Z,3.97
2022-08-28T21:04:46.882Z,4.80
2022-08-28T21:10:06.047Z,2.64
2022-08-28T21:15:01.058Z,3.37
2022-08-28T21:20:07.973Z,3.00
2022-08-28T21:25:15.157Z,5.70
2022-08-28T21:30:22.198Z,2.87
2022-08-28T21:35:28.716Z,4.42
2022-08-28T21:40:35.729Z,3.57
2022-08-28T21:45:42.761Z,4.27
2022-08-28T21:50:49.621Z,4.19
2022-08-28T21:55:56.248Z,4.96
2022-08-28T22:01:03.226Z,3.17
2022-08-28T22:06:10.260Z,3.65
2022-08-28T22:11:17.233Z,3.92
2022-08-28T22:16:23.969Z,3.69
2022-08-28T22:21:30.848Z,3.22
2022-08-28T22:26:37.999Z,4.07
2022-08-28T22:31:46.139Z,2.81
2022-08-28T22:36:51.716Z,3.16
2022-08-28T22:41:58.663Z,3.51
2022-08-28T22:47:05.766Z,3.17
2022-08-28T22:52:12.695Z,2.82
2022-08-28T22:57:21.993Z,3.34
2022-08-28T23:02:28.924Z,2.51
2022-08-28T23:07:35.943Z,2.61
2022-08-28T23:12:42.903Z,5.03
2022-08-28T23:17:49.978Z,3.27
2022-08-28T23:22:58.355Z,2.84
2022-08-28T23:28:06.363Z,2.86
2022-08-28T23:33:10.134Z,3.82
2022-08-28T23:38:17.280Z,3.84
2022-08-28T23:43:24.241Z,2.52
2022-08-28T23:48:31.568Z,4.05
2022-08-28T23:53:38.541Z,4.81
2022-08-28T23:58:45.647Z,2.96
